createdAt,value
2019-03-26T00:02:24.018Z,10.23
2019-03-26T00:04:53.949Z,8.70
2019-03-26T00:07:24.126Z,9.10
2019-03-26T00:09:54.602Z,10.37
2019-03-26T00:12:24.530Z,9.27
2019-03-26T00:14:54.521Z,9.13
2019-03-26T00:17:24.395Z,8.90
2019-03-26T00:19:54.602Z,9.63
2019-03-26T00:22:24.616Z,9.93
2019-03-26T00:24:54.531Z,9.53
2019-03-26T00:27:24.540Z,12.00
2019-03-26T00:29:54.776Z,10.47
2019-03-26T00:32:24.720Z,9.33
2019-03-26T00:34:54.696Z,8.23
2019-03-26T00:37:24.705Z,9.07
2019-03-26T00:39:55.176Z,7.87
2019-03-26T00:42:25.165Z,8.63
2019-03-26T00:44:55.077Z,8.30
2019-03-26T00:47:25.007Z,9.10
2019-03-26T00:49:55.238Z,10.27
2019-03-26T00:52:25.276Z,9.90
2019-03-26T00:54:55.186Z,9.03
2019-03-26T00:57:25.095Z,9.23
2019-03-26T00:59:55.031Z,8.80
2019-03-26T01:02:25.050Z,10.60
2019-03-26T01:04:55.344Z,8.97
2019-03-26T01:07:25.252Z,8.50
2019-03-26T01:09:55.130Z,8.30
2019-03-26T01:12:25.193Z,10.60
2019-03-26T01:14:55.085Z,10.57
2019-03-26T01:17:25.030Z,9.13
2019-03-26T01:19:54.922Z,8.47
2019-03-26T01:22:25.121Z,9.80
2019-03-26T01:24:55.402Z,8.37
2019-03-26T01:27:25.626Z,9.23
2019-03-26T01:29:55.720Z,12.50
2019-03-26T01:32:26.082Z,9.37
2019-03-26T01:34:55.937Z,10.20
2019-03-26T01:37:25.890Z,10.10
2019-03-26T01:39:56.301Z,8.57
2019-03-26T01:42:26.337Z,10.03
2019-03-26T01:44:56.363Z,9.83
2019-03-26T01:47:26.290Z,9.67
2019-03-26T01:49:56.554Z,9.50
2019-03-26T01:52:26.531Z,9.60
2019-03-26T01:54:56.577Z,10.73
2019-03-26T01:57:26.506Z,11.47
2019-03-26T01:59:56.424Z,10.23
2019-03-26T02:02:26.366Z,10.37
2019-03-26T02:05:00.303Z,10.20
2019-03-26T02:07:27.849Z,12.67
2019-03-26T02:09:57.963Z,10.90
2019-03-26T02:12:27.905Z,11.93
2019-03-26T02:14:57.814Z,10.00
2019-03-26T02:17:27.899Z,12.73
2019-03-26T02:19:57.841Z,13.77
2019-03-26T02:22:28.091Z,10.57
2019-03-26T02:24:58.013Z,13.33
2019-03-26T02:27:28.054Z,15.43
2019-03-26T02:29:57.983Z,11.67
2019-03-26T02:32:27.881Z,12.50
2019-03-26T02:34:57.948Z,13.97
2019-03-26T02:37:27.821Z,10.33
2019-03-26T02:39:57.765Z,11.63
2019-03-26T02:42:27.719Z,16.83
2019-03-26T02:44:57.647Z,12.13
2019-03-26T02:47:28.022Z,11.73
2019-03-26T02:49:57.982Z,12.40
2019-03-26T02:52:27.837Z,11.90
2019-03-26T02:54:57.762Z,10.13
2019-03-26T02:57:28.099Z,11.70
2019-03-26T02:59:59.630Z,12.80
2019-03-26T03:02:29.509Z,13.60
2019-03-26T03:04:59.650Z,14.97
2019-03-26T03:07:29.723Z,11.20
2019-03-26T03:09:59.771Z,15.97
2019-03-26T03:12:29.683Z,11.67
2019-03-26T03:14:59.587Z,12.50
2019-03-26T03:17:29.520Z,14.10
2019-03-26T03:19:59.801Z,12.23
2019-03-26T03:22:30.788Z,12.70
2019-03-26T03:25:00.586Z,11.63
2019-03-26T03:27:30.596Z,13.13
2019-03-26T03:30:00.553Z,13.03
2019-03-26T03:32:30.659Z,14.50
2019-03-26T03:35:00.915Z,14.63
2019-03-26T03:37:31.169Z,15.00
2019-03-26T03:40:01.232Z,13.23
2019-03-26T03:42:31.342Z,12.23
2019-03-26T03:45:01.237Z,12.50
2019-03-26T03:47:34.195Z,14.10
2019-03-26T03:50:04.439Z,13.57
2019-03-26T03:52:40.515Z,12.33
2019-03-26T03:55:11.822Z,12.73
2019-03-26T03:57:42.226Z,12.83
2019-03-26T04:00:30.816Z,13.60
2019-03-26T04:03:01.311Z,11.83
2019-03-26T04:05:31.198Z,12.60
2019-03-26T04:08:01.134Z,12.67
2019-03-26T04:10:30.983Z,13.43
2019-03-26T04:13:00.940Z,13.50
2019-03-26T04:15:34.488Z,12.40
2019-03-26T04:18:02.991Z,14.67
2019-03-26T04:20:32.877Z,13.37
2019-03-26T04:23:02.751Z,13.77
2019-03-26T04:25:32.648Z,12.60
2019-03-26T04:28:02.556Z,13.37
2019-03-26T04:30:34.139Z,13.83
2019-03-26T04:33:04.348Z,14.17
2019-03-26T04:35:34.228Z,12.67
2019-03-26T04:38:04.166Z,12.77
2019-03-26T04:40:34.263Z,13.90
2019-03-26T04:43:04.226Z,15.20
2019-03-26T04:45:34.130Z,14.17
2019-03-26T04:48:04.042Z,12.20
2019-03-26T04:50:34.474Z,14.07
2019-03-26T04:53:04.498Z,14.10
2019-03-26T04:55:35.036Z,18.57
2019-03-26T04:58:04.999Z,15.40
2019-03-26T05:00:35.386Z,17.43
2019-03-26T05:03:05.412Z,17.97
2019-03-26T05:05:35.737Z,15.47
2019-03-26T05:08:05.658Z,17.60
2019-03-26T05:10:35.562Z,18.80
2019-03-26T05:13:05.571Z,18.57
2019-03-26T05:15:35.713Z,15.03
2019-03-26T05:18:05.717Z,17.27
2019-03-26T05:20:35.844Z,17.13
2019-03-26T05:23:05.663Z,14.93
2019-03-26T05:25:35.652Z,16.30
2019-03-26T05:28:05.579Z,14.27
2019-03-26T05:30:35.759Z,15.03
2019-03-26T05:33:05.693Z,15.03
2019-03-26T05:35:35.646Z,14.43
2019-03-26T05:38:05.689Z,13.27
2019-03-26T05:40:37.869Z,15.60
2019-03-26T05:43:07.962Z,16.63
2019-03-26T05:45:40.341Z,18.77
2019-03-26T05:48:10.581Z,18.20
2019-03-26T05:50:40.630Z,20.30
2019-03-26T05:53:10.947Z,16.87
2019-03-26T05:55:40.967Z,21.07
2019-03-26T05:58:10.959Z,17.50
2019-03-26T06:00:40.943Z,23.57
2019-03-26T06:03:10.855Z,18.60
2019-03-26T06:05:40.940Z,17.73
2019-03-26T06:08:11.371Z,17.57
2019-03-26T06:10:41.274Z,16.20
2019-03-26T06:13:11.231Z,17.63
2019-03-26T06:15:41.207Z,14.63
2019-03-26T06:18:11.722Z,21.33
2019-03-26T06:20:41.782Z,28.17
2019-03-26T06:23:11.876Z,20.73
2019-03-26T06:25:42.124Z,21.87
2019-03-26T06:28:12.131Z,17.90
2019-03-26T06:30:42.342Z,17.60
2019-03-26T06:33:12.269Z,18.17
2019-03-26T06:35:42.229Z,17.77
2019-03-26T06:38:12.327Z,16.53
2019-03-26T06:40:42.493Z,16.20
2019-03-26T06:43:12.342Z,15.70
2019-03-26T06:45:42.394Z,15.37
2019-03-26T06:48:12.651Z,14.70
2019-03-26T06:50:42.738Z,13.90
2019-03-26T06:53:12.676Z,15.67
2019-03-26T06:55:42.666Z,16.13
2019-03-26T06:58:13.037Z,15.37
2019-03-26T07:00:43.159Z,17.03
2019-03-26T07:03:13.276Z,19.30
2019-03-26T07:05:43.282Z,18.20
2019-03-26T07:08:13.198Z,16.23
2019-03-26T07:10:43.203Z,14.67
2019-03-26T07:13:13.429Z,13.67
2019-03-26T07:15:43.823Z,16.60
2019-03-26T07:18:13.931Z,12.87
2019-03-26T07:20:44.050Z,17.87
2019-03-26T07:23:14.324Z,15.83
2019-03-26T07:25:44.299Z,15.50
2019-03-26T07:28:14.203Z,14.90
2019-03-26T07:30:45.223Z,17.97
2019-03-26T07:33:15.215Z,17.57
2019-03-26T07:35:45.182Z,16.60
2019-03-26T07:38:15.195Z,13.33
2019-03-26T07:40:45.239Z,13.80
2019-03-26T07:43:15.572Z,14.57
2019-03-26T07:45:45.623Z,16.57
2019-03-26T07:48:16.010Z,15.90
2019-03-26T07:50:46.376Z,17.20
2019-03-26T07:53:16.434Z,13.93
2019-03-26T07:55:46.387Z,16.73
2019-03-26T07:58:16.318Z,12.30
2019-03-26T08:00:46.259Z,14.10
2019-03-26T08:03:16.254Z,13.27
2019-03-26T08:05:46.189Z,11.87
2019-03-26T08:08:16.109Z,12.80
2019-03-26T08:10:46.246Z,16.73
2019-03-26T08:13:16.210Z,15.80
2019-03-26T08:15:46.197Z,11.77
2019-03-26T08:18:16.216Z,14.10
2019-03-26T08:20:46.216Z,15.43
2019-03-26T08:23:16.666Z,17.60
2019-03-26T08:25:46.649Z,13.47
2019-03-26T08:28:17.137Z,12.80
2019-03-26T08:30:49.991Z,15.87
2019-03-26T08:33:18.725Z,16.13
2019-03-26T08:35:48.762Z,10.73
2019-03-26T08:38:19.119Z,14.70
2019-03-26T08:40:49.402Z,12.63
2019-03-26T08:43:19.655Z,13.30
2019-03-26T08:45:49.919Z,11.80
2019-03-26T08:48:19.851Z,14.33
2019-03-26T08:50:49.935Z,11.07
2019-03-26T08:53:20.033Z,15.83
2019-03-26T08:55:50.207Z,10.13
2019-03-26T08:58:20.243Z,12.97
2019-03-26T09:00:50.338Z,12.37
2019-03-26T09:03:20.322Z,11.93
2019-03-26T09:05:50.831Z,13.23
2019-03-26T09:08:25.494Z,10.23
2019-03-26T09:10:52.834Z,9.03
2019-03-26T09:13:22.909Z,10.27
2019-03-26T09:15:52.933Z,7.37
2019-03-26T09:18:23.025Z,8.90
2019-03-26T09:20:53.081Z,10.90
2019-03-26T09:23:23.604Z,8.03
2019-03-26T09:25:53.551Z,9.43
2019-03-26T09:28:23.731Z,11.13
2019-03-26T09:30:53.619Z,9.70
2019-03-26T09:33:23.561Z,8.40
2019-03-26T09:35:53.570Z,10.57
2019-03-26T09:38:23.519Z,7.97
2019-03-26T09:40:53.600Z,9.17
2019-03-26T09:43:23.591Z,8.93
2019-03-26T09:45:53.955Z,8.53
2019-03-26T09:48:24.086Z,7.43
2019-03-26T09:50:54.223Z,10.13
2019-03-26T09:53:24.170Z,9.23
2019-03-26T09:55:54.225Z,8.97
2019-03-26T09:58:25.334Z,8.57
2019-03-26T10:00:55.813Z,11.03
2019-03-26T10:03:25.964Z,7.07
2019-03-26T10:05:56.222Z,9.33
2019-03-26T10:08:26.147Z,8.17
2019-03-26T10:10:56.290Z,6.87
2019-03-26T10:13:26.198Z,8.93
2019-03-26T10:15:56.172Z,9.53
2019-03-26T10:18:27.171Z,8.97
2019-03-26T10:20:57.305Z,8.80
2019-03-26T10:23:27.524Z,7.37
2019-03-26T10:25:57.441Z,9.53
2019-03-26T10:28:27.330Z,8.57
2019-03-26T10:30:57.389Z,8.77
2019-03-26T10:33:27.211Z,7.30
2019-03-26T10:35:57.321Z,7.97
2019-03-26T10:38:27.486Z,5.10
2019-03-26T10:40:57.443Z,5.87
2019-03-26T10:43:29.473Z,8.10
2019-03-26T10:45:59.410Z,8.00
2019-03-26T10:48:31.802Z,7.37
2019-03-26T10:51:01.273Z,7.70
2019-03-26T10:53:31.155Z,9.10
2019-03-26T10:56:01.265Z,7.77
2019-03-26T10:58:31.180Z,7.77
2019-03-26T11:01:01.278Z,6.27
2019-03-26T11:03:31.077Z,4.97
2019-03-26T11:06:01.241Z,7.70
2019-03-26T11:08:31.334Z,6.03
2019-03-26T11:11:01.450Z,6.50
2019-03-26T11:13:31.728Z,5.47
2019-03-26T11:16:01.982Z,9.60
2019-03-26T11:18:32.077Z,6.80
2019-03-26T11:21:03.186Z,7.13
2019-03-26T11:23:33.555Z,7.20
2019-03-26T11:26:03.461Z,7.90
2019-03-26T11:28:33.831Z,6.77
2019-03-26T11:31:03.710Z,8.53
2019-03-26T11:33:33.779Z,5.93
2019-03-26T11:36:03.759Z,5.80
2019-03-26T11:38:34.218Z,5.70
2019-03-26T11:41:04.472Z,7.70
2019-03-26T11:43:34.625Z,6.70
2019-03-26T11:46:04.567Z,6.50
2019-03-26T11:48:34.509Z,7.13
2019-03-26T11:51:04.513Z,6.43
2019-03-26T11:53:34.507Z,7.07
2019-03-26T11:56:04.587Z,4.50
2019-03-26T11:58:34.714Z,7.63
2019-03-26T12:01:05.231Z,7.50
2019-03-26T12:03:35.311Z,4.83
2019-03-26T12:06:05.848Z,4.97
2019-03-26T12:08:36.102Z,8.63
2019-03-26T12:11:06.017Z,5.90
2019-03-26T12:13:36.009Z,4.50
2019-03-26T12:16:05.971Z,4.13
2019-03-26T12:18:36.207Z,3.50
2019-03-26T12:21:06.222Z,4.47
2019-03-26T12:23:36.172Z,5.97
2019-03-26T12:26:06.288Z,4.47
2019-03-26T12:28:36.225Z,4.73
2019-03-26T12:31:06.356Z,4.03
2019-03-26T12:33:36.558Z,4.00
2019-03-26T12:36:06.570Z,3.87
2019-03-26T12:38:36.555Z,3.93
2019-03-26T12:41:06.631Z,3.50
2019-03-26T12:43:37.091Z,2.67
2019-03-26T12:46:07.144Z,3.10
2019-03-26T12:48:37.591Z,3.83
2019-03-26T12:51:07.691Z,5.83
2019-03-26T12:53:37.817Z,3.87
2019-03-26T12:56:07.944Z,4.47
2019-03-26T12:58:38.024Z,4.50
2019-03-26T13:01:08.132Z,3.87
2019-03-26T13:03:38.138Z,3.57
2019-03-26T13:06:08.183Z,5.80
2019-03-26T13:08:38.404Z,5.23
2019-03-26T13:11:08.555Z,4.13
2019-03-26T13:13:38.746Z,4.93
2019-03-26T13:16:08.691Z,7.10
2019-03-26T13:18:39.191Z,5.77
2019-03-26T13:21:09.178Z,5.57
2019-03-26T13:23:39.579Z,4.70
2019-03-26T13:26:09.953Z,5.20
2019-03-26T13:28:40.473Z,5.97
2019-03-26T13:31:10.431Z,5.33
2019-03-26T13:33:40.881Z,5.10
2019-03-26T13:36:10.955Z,6.33
2019-03-26T13:38:41.258Z,4.20
2019-03-26T13:41:11.232Z,4.23
2019-03-26T13:43:41.850Z,5.10
2019-03-26T13:46:11.882Z,4.83
2019-03-26T13:48:42.329Z,4.47
2019-03-26T13:51:12.488Z,6.63
2019-03-26T13:53:42.469Z,3.73
2019-03-26T13:56:12.406Z,3.73
2019-03-26T13:58:43.255Z,4.30
2019-03-26T14:01:13.150Z,5.43
2019-03-26T14:03:43.209Z,3.83
2019-03-26T14:06:13.281Z,6.57
2019-03-26T14:08:43.763Z,6.63
2019-03-26T14:11:13.698Z,5.97
2019-03-26T14:13:43.816Z,6.27
2019-03-26T14:16:14.023Z,2.63
2019-03-26T14:18:44.420Z,3.60
2019-03-26T14:21:14.573Z,3.57
2019-03-26T14:23:45.013Z,5.43
2019-03-26T14:26:15.267Z,3.23
2019-03-26T14:28:45.906Z,2.57
2019-03-26T14:31:15.889Z,3.97
2019-03-26T14:33:46.257Z,4.77
2019-03-26T14:36:16.245Z,4.57
2019-03-26T14:38:46.334Z,2.70
2019-03-26T14:41:16.582Z,3.50
2019-03-26T14:43:46.865Z,3.03
2019-03-26T14:46:17.151Z,3.60
2019-03-26T14:48:47.258Z,2.97
2019-03-26T14:51:17.300Z,3.93
2019-03-26T14:53:47.911Z,5.03
2019-03-26T14:56:18.107Z,4.73
2019-03-26T14:58:48.420Z,4.70
2019-03-26T15:01:18.573Z,3.73
2019-03-26T15:03:48.647Z,2.87
2019-03-26T15:06:18.934Z,5.30
2019-03-26T15:08:50.574Z,3.97
2019-03-26T15:11:20.961Z,5.77
2019-03-26T15:13:51.052Z,3.40
2019-03-26T15:16:21.192Z,4.10
2019-03-26T15:18:51.282Z,4.73
2019-03-26T15:21:21.286Z,4.90
2019-03-26T15:23:51.687Z,2.90
2019-03-26T15:26:21.640Z,3.07
2019-03-26T15:28:51.790Z,5.03
2019-03-26T15:31:21.774Z,5.87
2019-03-26T15:33:51.792Z,4.23
2019-03-26T15:36:21.815Z,5.37
2019-03-26T15:38:51.894Z,2.70
2019-03-26T15:41:22.247Z,8.13
2019-03-26T15:43:52.444Z,20.93
2019-03-26T15:46:22.399Z,4.43
2019-03-26T15:48:52.782Z,5.30
2019-03-26T15:51:22.843Z,2.90
2019-03-26T15:53:52.996Z,5.20
2019-03-26T15:56:23.167Z,6.83
2019-03-26T15:58:53.412Z,3.93
2019-03-26T16:01:24.684Z,4.53
2019-03-26T16:03:54.889Z,5.13
2019-03-26T16:06:24.968Z,4.20
2019-03-26T16:08:55.196Z,5.10
2019-03-26T16:11:35.552Z,5.23
2019-03-26T16:13:57.643Z,5.43
2019-03-26T16:16:27.576Z,3.53
2019-03-26T16:18:57.819Z,2.90
2019-03-26T16:21:28.094Z,5.37
2019-03-26T16:23:58.204Z,4.27
2019-03-26T16:26:28.238Z,5.27
2019-03-26T16:28:58.194Z,6.17
2019-03-26T16:31:28.603Z,5.13
2019-03-26T16:33:58.949Z,3.07
2019-03-26T16:36:29.001Z,7.07
2019-03-26T16:38:59.484Z,5.20
2019-03-26T16:41:29.499Z,4.47
2019-03-26T16:43:59.826Z,3.20
2019-03-26T16:46:30.194Z,4.17
2019-03-26T16:49:00.489Z,5.17
2019-03-26T16:51:30.646Z,7.33
2019-03-26T16:54:00.632Z,6.73
2019-03-26T16:56:30.893Z,6.20
2019-03-26T16:59:01.465Z,7.03
2019-03-26T17:01:31.395Z,6.93
2019-03-26T17:04:01.339Z,6.20
2019-03-26T17:06:31.398Z,6.47
2019-03-26T17:09:01.686Z,6.43
2019-03-26T17:11:32.029Z,7.60
2019-03-26T17:14:02.063Z,6.67
2019-03-26T17:16:32.194Z,12.27
2019-03-26T17:19:02.285Z,11.23
2019-03-26T17:21:32.344Z,12.03
2019-03-26T17:24:02.320Z,15.47
2019-03-26T17:26:32.451Z,16.63
2019-03-26T17:29:02.746Z,14.83
2019-03-26T17:31:32.699Z,14.00
2019-03-26T17:34:02.789Z,12.03
2019-03-26T17:36:32.739Z,12.50
2019-03-26T17:39:02.923Z,17.90
2019-03-26T17:41:32.920Z,17.13
2019-03-26T17:44:02.829Z,13.43
2019-03-26T17:46:32.875Z,13.80
2019-03-26T17:49:03.049Z,16.53
2019-03-26T17:51:33.176Z,14.53
2019-03-26T17:54:03.397Z,15.13
2019-03-26T17:56:33.551Z,14.73
2019-03-26T17:59:03.684Z,15.53
2019-03-26T18:01:34.401Z,17.77
2019-03-26T18:04:05.006Z,15.07
2019-03-26T18:06:35.264Z,16.57
2019-03-26T18:09:07.171Z,15.47
2019-03-26T18:11:37.591Z,13.57
2019-03-26T18:14:08.166Z,16.97
2019-03-26T18:16:38.151Z,15.67
2019-03-26T18:19:08.394Z,15.23
2019-03-26T18:21:50.840Z,15.23
2019-03-26T18:24:10.879Z,16.57
2019-03-26T18:26:40.955Z,17.50
2019-03-26T18:29:11.109Z,15.23
2019-03-26T18:31:41.599Z,14.03
2019-03-26T18:34:11.976Z,16.37
2019-03-26T18:36:42.021Z,15.93
2019-03-26T18:39:12.473Z,14.10
2019-03-26T18:41:42.751Z,16.10
2019-03-26T18:44:12.895Z,20.53
2019-03-26T18:46:43.151Z,14.73
2019-03-26T18:49:13.310Z,15.03
2019-03-26T18:51:43.603Z,15.83
2019-03-26T18:54:14.137Z,13.77
2019-03-26T18:56:44.370Z,14.97
2019-03-26T18:59:14.508Z,13.10
2019-03-26T19:01:45.013Z,13.80
2019-03-26T19:04:15.455Z,10.67
2019-03-26T19:06:45.882Z,15.33
2019-03-26T19:09:16.140Z,12.93
2019-03-26T19:11:46.416Z,13.30
2019-03-26T19:14:16.953Z,14.63
2019-03-26T19:16:47.289Z,14.63
2019-03-26T19:19:17.784Z,17.57
2019-03-26T19:21:48.124Z,16.10
2019-03-26T19:24:18.986Z,13.77
2019-03-26T19:26:49.257Z,13.03
2019-03-26T19:29:19.609Z,13.33
2019-03-26T19:31:49.967Z,12.90
2019-03-26T19:34:20.336Z,14.63
2019-03-26T19:36:50.810Z,22.17
2019-03-26T19:39:21.332Z,12.67
2019-03-26T19:41:51.952Z,14.23
2019-03-26T19:44:22.742Z,12.87
2019-03-26T19:46:53.116Z,15.57
2019-03-26T19:49:23.611Z,12.90
2019-03-26T19:51:54.119Z,14.57
2019-03-26T19:54:25.141Z,13.70
2019-03-26T19:56:56.125Z,13.17
2019-03-26T19:59:26.463Z,11.63
2019-03-26T20:01:57.318Z,14.03
2019-03-26T20:04:27.789Z,12.67
2019-03-26T20:06:57.992Z,13.87
2019-03-26T20:09:28.523Z,15.67
2019-03-26T20:11:58.900Z,14.17
2019-03-26T20:14:29.346Z,14.63
2019-03-26T20:16:59.838Z,12.60
2019-03-26T20:19:30.471Z,14.30
2019-03-26T20:22:00.838Z,12.43
2019-03-26T20:24:31.097Z,12.23
2019-03-26T20:27:01.370Z,13.10
2019-03-26T20:29:31.591Z,13.90
2019-03-26T20:32:01.698Z,15.93
2019-03-26T20:34:32.097Z,13.60
2019-03-26T20:37:02.413Z,12.73
2019-03-26T20:39:32.545Z,13.43
2019-03-26T20:42:02.940Z,12.23
2019-03-26T20:44:33.127Z,12.20
2019-03-26T20:47:03.650Z,14.40
2019-03-26T20:49:34.311Z,13.83
2019-03-26T20:52:04.611Z,12.90
2019-03-26T20:54:34.862Z,17.90
2019-03-26T20:57:05.088Z,12.30
2019-03-26T20:59:35.570Z,15.50
2019-03-26T21:02:05.905Z,13.83
2019-03-26T21:04:36.205Z,16.57
2019-03-26T21:07:06.530Z,12.27
2019-03-26T21:09:37.028Z,15.10
2019-03-26T21:12:07.412Z,12.00
2019-03-26T21:14:37.848Z,14.33
2019-03-26T21:17:08.402Z,14.87
2019-03-26T21:19:39.135Z,13.47
2019-03-26T21:22:09.370Z,12.47
2019-03-26T21:24:39.699Z,15.73
2019-03-26T21:27:10.207Z,15.10
2019-03-26T21:29:40.582Z,14.40
2019-03-26T21:32:13.178Z,14.17
2019-03-26T21:34:43.266Z,13.70
2019-03-26T21:37:13.627Z,12.40
2019-03-26T21:39:43.699Z,13.50
2019-03-26T21:42:14.094Z,13.17
2019-03-26T21:44:44.407Z,14.60
2019-03-26T21:47:14.519Z,18.40
2019-03-26T21:49:48.319Z,13.03
2019-03-26T21:52:17.034Z,18.00
2019-03-26T21:54:47.591Z,14.43
2019-03-26T21:57:17.677Z,11.53
2019-03-26T21:59:48.093Z,13.27
2019-03-26T22:02:18.173Z,15.37
2019-03-26T22:04:48.412Z,17.63
2019-03-26T22:07:18.412Z,14.63
2019-03-26T22:09:48.807Z,12.33
2019-03-26T22:12:20.876Z,13.20
2019-03-26T22:14:51.818Z,14.90
2019-03-26T22:17:22.339Z,14.07
2019-03-26T22:19:52.452Z,13.47
2019-03-26T22:22:22.729Z,15.93
2019-03-26T22:24:52.722Z,15.43
2019-03-26T22:27:23.102Z,13.53
2019-03-26T22:29:53.246Z,15.23
2019-03-26T22:32:23.340Z,18.57
2019-03-26T22:34:53.381Z,11.63
2019-03-26T22:37:23.612Z,14.33
2019-03-26T22:39:53.516Z,17.57
2019-03-26T22:42:23.596Z,13.73
2019-03-26T22:44:53.746Z,19.73
2019-03-26T22:47:24.100Z,16.60
2019-03-26T22:49:57.094Z,14.90
2019-03-26T22:52:25.892Z,14.90
2019-03-26T22:54:55.811Z,18.67
2019-03-26T22:57:25.989Z,17.23
2019-03-26T22:59:55.944Z,17.53
2019-03-26T23:02:26.155Z,14.93
2019-03-26T23:04:56.252Z,18.53
2019-03-26T23:07:26.587Z,16.23
2019-03-26T23:09:56.570Z,16.03
2019-03-26T23:12:26.572Z,14.90
2019-03-26T23:14:56.490Z,15.37
2019-03-26T23:17:26.668Z,16.00
2019-03-26T23:19:56.793Z,15.97
2019-03-26T23:22:27.210Z,14.27
2019-03-26T23:24:57.348Z,14.00
2019-03-26T23:27:27.359Z,18.80
2019-03-26T23:29:57.267Z,17.27
2019-03-26T23:32:27.413Z,17.63
2019-03-26T23:34:57.774Z,18.33
2019-03-26T23:37:27.974Z,20.33
2019-03-26T23:39:57.993Z,17.97
2019-03-26T23:42:28.063Z,18.17
2019-03-26T23:44:58.807Z,17.10
2019-03-26T23:47:29.127Z,17.83
2019-03-26T23:49:59.293Z,17.63
2019-03-26T23:52:29.438Z,17.00
2019-03-26T23:54:59.880Z,14.83
2019-03-26T23:57:29.986Z,16.90
